Time;durP1;ratioP1;P1;durP2;ratioP2;P2;SDS_P1;SDS_P2;PMS_P1;PMS_P2;Temp;Humidity;BMP_temperature;BMP_pressure;BME280_temperature;BME280_humidity;BME280_pressure;Samples;Min_cycle;Max_cycle;Signal;HPM_P1;HPM_P2
2022/08/02 00:00:11;;;;;;;12.13;5.32;;;;;;;24.94;53.20;100164.44;5023201;28;20091;-68
2022/08/02 00:02:38;;;;;;;10.63;5.45;;;;;;;24.82;53.43;100174.91;5039989;28;20470;-68
2022/08/02 00:05:05;;;;;;;11.98;5.25;;;;;;;24.83;53.31;100173.69;5022599;28;20132;-67
2022/08/02 00:07:33;;;;;;;9.85;5.05;;;;;;;24.81;53.18;100167.53;5022504;28;20151;-67
2022/08/02 00:10:08;;;;;;;12.75;5.70;;;;;;;24.82;53.59;100162.66;5022753;28;20050;-68
2022/08/02 00:12:35;;;;;;;13.93;6.53;;;;;;;24.73;53.73;100154.34;5021484;28;20128;-68
2022/08/02 00:15:03;;;;;;;12.02;5.45;;;;;;;24.83;53.32;100170.81;5022579;28;20065;-69
2022/08/02 00:17:30;;;;;;;12.07;6.00;;;;;;;24.62;53.36;100136.25;5025285;28;20143;-67
2022/08/02 00:19:57;;;;;;;11.10;5.07;;;;;;;24.72;53.89;100152.72;5025812;28;20073;-67
2022/08/02 00:22:24;;;;;;;14.40;5.80;;;;;;;24.61;53.70;100128.88;5026583;28;20046;-68
2022/08/02 00:24:50;;;;;;;10.35;5.05;;;;;;;24.71;53.46;100142.50;5024591;28;20145;-68
2022/08/02 00:27:17;;;;;;;12.88;5.90;;;;;;;24.66;53.64;100131.41;5022631;28;20393;-68
2022/08/02 00:29:44;;;;;;;15.70;6.32;;;;;;;24.80;53.65;100157.31;5023944;28;20144;-69
2022/08/02 00:32:19;;;;;;;17.13;5.40;;;;;;;24.76;53.99;100142.16;5029394;28;20100;-70
2022/08/02 00:34:46;;;;;;;13.70;6.10;;;;;;;24.61;53.87;100123.19;5028346;28;20088;-66
2022/08/02 00:37:14;;;;;;;15.95;6.43;;;;;;;24.77;53.55;100148.69;5024553;28;21804;-66
2022/08/02 00:39:41;;;;;;;10.63;5.95;;;;;;;24.72;53.65;100151.91;5040984;28;20111;-68
2022/08/02 00:42:09;;;;;;;16.77;6.00;;;;;;;24.62;53.75;100127.69;5024470;28;20923;-67
2022/08/02 00:44:37;;;;;;;16.08;6.38;;;;;;;24.53;53.78;100133.69;5025353;28;20050;-68
2022/08/02 00:47:04;;;;;;;19.67;9.80;;;;;;;24.48;54.37;100114.03;5025800;28;20085;-68
2022/08/02 00:49:31;;;;;;;13.95;7.75;;;;;;;24.50;54.23;100125.88;5022602;28;20592;-67
2022/08/02 00:51:59;;;;;;;14.70;8.63;;;;;;;24.66;54.09;100142.03;5022169;28;20100;-67
2022/08/02 00:54:26;;;;;;;17.08;8.15;;;;;;;24.59;54.54;100140.72;5020926;28;20125;-67
2022/08/02 00:56:53;;;;;;;18.88;8.13;;;;;;;24.58;54.56;100143.94;5040797;28;20049;-66
2022/08/02 00:59:20;;;;;;;20.33;9.43;;;;;;;24.36;54.46;100106.50;5023311;28;20124;-66
2022/08/02 01:01:46;;;;;;;19.75;10.00;;;;;;;24.55;54.80;100136.16;5021106;28;20469;-67
2022/08/02 01:04:26;;;;;;;18.48;10.50;;;;;;;24.52;54.39;100126.34;5029845;28;20409;-66
2022/08/02 01:06:59;;;;;;;16.23;9.40;;;;;;;24.40;54.64;100109.44;5021832;28;20054;-65
2022/08/02 01:09:26;;;;;;;23.88;10.25;;;;;;;24.48;54.54;100118.91;5025413;28;20073;-66
2022/08/02 01:11:53;;;;;;;16.17;9.00;;;;;;;24.22;54.54;100077.75;5025718;28;20460;-66
2022/08/02 01:14:23;;;;;;;21.50;8.68;;;;;;;24.49;54.72;100109.16;5026709;28;20060;-66
2022/08/02 01:17:13;;;;;;;18.35;9.88;;;;;;;24.48;54.47;100118.91;5025451;28;20103;-66
2022/08/02 01:20:09;;;;;;;14.70;8.98;;;;;;;24.40;54.75;100115.13;5032204;28;20140;-68
2022/08/02 01:22:42;;;;;;;18.40;7.75;;;;;;;24.45;54.88;100120.53;5022696;28;20128;-68
2022/08/02 01:25:46;;;;;;;14.73;9.02;;;;;;;24.39;54.62;100115.50;5020682;28;20057;-67
2022/08/02 01:28:28;;;;;;;13.85;7.00;;;;;;;24.38;55.35;100128.94;5025984;28;20055;-65
2022/08/02 01:31:34;;;;;;;17.90;7.28;;;;;;;24.30;55.26;100108.03;5025591;28;20132;-66
2022/08/02 01:34:39;;;;;;;19.00;7.50;;;;;;;24.29;54.94;100112.09;5017953;28;20132;-66
2022/08/02 01:37:34;;;;;;;12.43;6.90;;;;;;;24.26;55.42;100107.16;5024038;28;20128;-66
2022/08/02 01:40:07;;;;;;;16.05;7.03;;;;;;;24.12;55.42;100086.97;5020393;28;20056;-66
2022/08/02 01:42:36;;;;;;;13.18;5.95;;;;;;;24.25;55.31;100111.22;5026682;28;20130;-65
2022/08/02 01:45:03;;;;;;;11.57;6.15;;;;;;;24.05;55.93;100081.16;5021170;28;20060;-65
2022/08/02 01:47:36;;;;;;;14.38;6.78;;;;;;;24.24;55.86;100115.28;5019570;28;20144;-65
2022/08/02 01:50:06;;;;;;;16.60;6.97;;;;;;;24.26;55.96;100110.00;5023535;28;20127;-66
2022/08/02 01:52:36;;;;;;;11.48;6.13;;;;;;;24.19;55.66;100104.19;5024060;28;20475;-65
2022/08/02 01:55:10;;;;;;;14.73;5.95;;;;;;;24.21;56.05;100104.63;5030072;28;20136;-67
2022/08/02 01:57:57;;;;;;;15.98;6.50;;;;;;;24.11;55.66;100103.25;5027091;28;20057;-66
2022/08/02 02:00:30;;;;;;;13.68;6.85;;;;;;;23.97;56.31;100085.09;5023758;28;20069;-67
2022/08/02 02:02:59;;;;;;;13.30;7.22;;;;;;;24.04;56.25;100102.34;5027005;28;20141;-67
2022/08/02 02:05:31;;;;;;;12.95;7.15;;;;;;;24.00;56.36;100099.44;5023266;28;20045;-68
2022/08/02 02:08:02;;;;;;;13.15;6.57;;;;;;;24.01;56.41;100097.41;5026774;28;20057;-68
2022/08/02 02:10:31;;;;;;;16.13;6.40;;;;;;;24.06;56.62;100100.72;5031177;28;20049;-68
2022/08/02 02:13:05;;;;;;;12.15;7.28;;;;;;;24.00;56.45;100090.88;5030550;28;20088;-65
2022/08/02 02:15:39;;;;;;;16.80;7.00;;;;;;;23.98;56.84;100081.84;5021697;28;20136;-66
2022/08/02 02:18:07;;;;;;;18.58;6.90;;;;;;;23.94;56.79;100085.88;5019670;28;20081;-65
2022/08/02 02:20:41;;;;;;;13.63;6.85;;;;;;;23.91;57.05;100072.38;5022205;28;20133;-65
2022/08/02 02:23:08;;;;;;;12.40;6.25;;;;;;;24.03;56.57;100092.94;5025532;28;20132;-65
2022/08/02 02:25:37;;;;;;;19.98;7.47;;;;;;;24.05;56.67;100098.28;5024112;28;20049;-64
2022/08/02 02:28:12;;;;;;;11.73;6.22;;;;;;;24.06;56.68;100085.63;5022669;28;20058;-65
2022/08/02 02:30:44;;;;;;;13.98;7.15;;;;;;;23.97;56.67;100082.25;5025118;28;20058;-65
2022/08/02 02:33:15;;;;;;;21.80;7.00;;;;;;;23.95;57.51;100081.81;5027848;28;20500;-65
2022/08/02 02:35:46;;;;;;;14.77;6.60;;;;;;;23.96;57.45;100086.28;5024963;28;20065;-67
2022/08/02 02:38:15;;;;;;;13.50;6.63;;;;;;;23.86;57.40;100076.34;5027251;28;20505;-67
2022/08/02 02:40:45;;;;;;;11.73;5.72;;;;;;;23.75;57.50;100093.28;5024004;28;20067;-67
2022/08/02 02:43:13;;;;;;;17.10;6.65;;;;;;;23.46;57.99;100063.44;5021873;28;20460;-67
2022/08/02 02:45:42;;;;;;;13.15;7.43;;;;;;;23.17;58.66;100042.16;5030532;28;20144;-67
2022/08/02 02:48:10;;;;;;;11.70;6.07;;;;;;;23.22;58.37;100081.72;5024028;28;20055;-65
2022/08/02 02:50:37;;;;;;;17.98;6.18;;;;;;;23.07;58.58;100062.69;5019203;28;20046;-67
2022/08/02 02:53:05;;;;;;;11.80;5.43;;;;;;;23.10;58.59;100073.34;5024508;28;20125;-67
2022/08/02 02:55:32;;;;;;;12.52;6.45;;;;;;;22.99;58.78;100055.22;5027886;28;20084;-67
2022/08/02 02:58:01;;;;;;;15.07;6.57;;;;;;;23.06;58.97;100061.88;5026657;28;20137;-67
2022/08/02 03:03:16;;;;;;;10.98;5.55;;;;;;;23.23;58.46;100063.44;5023466;28;20394;-67
2022/08/02 03:05:48;;;;;;;9.88;5.57;;;;;;;23.37;58.25;100075.09;5023447;28;20137;-67
2022/08/02 03:08:15;;;;;;;15.90;6.97;;;;;;;23.33;58.30;100079.06;5028629;28;20053;-67
2022/08/02 03:10:44;;;;;;;13.05;5.88;;;;;;;23.21;58.06;100048.72;5023663;28;20365;-66
2022/08/02 03:13:12;;;;;;;13.00;6.32;;;;;;;23.48;57.58;100071.59;5024347;28;20133;-66
2022/08/02 03:15:40;;;;;;;10.73;5.60;;;;;;;23.41;58.06;100053.16;5025385;28;20149;-67
2022/08/02 03:18:07;;;;;;;11.45;6.30;;;;;;;23.67;57.74;100077.25;5028998;28;20136;-66
2022/08/02 03:20:34;;;;;;;13.75;5.70;;;;;;;23.46;57.36;100037.81;5024778;28;20057;-68
2022/08/02 03:23:01;;;;;;;16.85;6.03;;;;;;;23.59;57.01;100052.66;5043209;28;20045;-67
2022/08/02 03:25:28;;;;;;;14.02;6.63;;;;;;;23.67;57.35;100073.56;5021193;28;20602;-67
2022/08/02 03:27:54;;;;;;;9.85;5.88;;;;;;;23.55;57.50;100061.16;5025479;28;20535;-67
2022/08/02 03:30:25;;;;;;;11.48;6.30;;;;;;;23.42;57.91;100057.69;5025386;28;20499;-65
2022/08/02 03:32:52;;;;;;;14.18;6.68;;;;;;;23.52;57.59;100063.94;5023923;28;20133;-67
2022/08/02 03:35:19;;;;;;;11.98;6.18;;;;;;;23.50;57.78;100055.78;5022504;28;20056;-67
2022/08/02 03:37:52;;;;;;;14.70;6.90;;;;;;;23.52;58.03;100043.97;5023846;28;20068;-68
2022/08/02 03:40:19;;;;;;;;;;;;;;;23.53;57.65;100042.81;5028844;28;20467;-65
2022/08/02 03:42:47;;;;;;;11.93;6.40;;;;;;;23.42;57.50;100023.50;5029266;28;19971;-66
2022/08/02 03:45:14;;;;;;;18.70;6.68;;;;;;;23.51;57.55;100043.16;5022194;28;20179;-66
2022/08/02 03:47:42;;;;;;;14.77;7.20;;;;;;;23.48;58.01;100035.38;5029499;28;20057;-66
2022/08/02 03:50:12;;;;;;;15.27;6.53;;;;;;;23.45;58.00;100024.72;5032081;28;20119;-66
2022/08/02 03:52:41;;;;;;;15.30;6.85;;;;;;;23.58;58.05;100039.63;5041045;28;20167;-66
2022/08/02 03:55:10;;;;;;;17.93;7.87;;;;;;;23.54;57.74;100047.28;5027412;28;20503;-66
2022/08/02 03:57:38;;;;;;;14.00;7.23;;;;;;;23.39;57.96;100018.56;5025149;28;20840;-66
2022/08/02 04:00:08;;;;;;;13.73;7.07;;;;;;;23.68;58.25;100041.03;5024579;28;20302;-66
2022/08/02 04:02:35;;;;;;;14.35;6.43;;;;;;;23.75;58.07;100047.66;5033986;28;20136;-66
2022/08/02 04:05:02;;;;;;;16.15;6.63;;;;;;;23.83;57.98;100054.34;5031756;28;20130;-66
2022/08/02 04:07:29;;;;;;;13.25;6.57;;;;;;;23.71;57.93;100035.38;5032417;28;20494;-65
2022/08/02 04:10:17;;;;;;;17.80;6.85;;;;;;;23.73;57.58;100037.88;5027118;28;20046;-65
2022/08/02 04:12:44;;;;;;;14.38;6.60;;;;;;;23.68;57.73;100041.84;5032487;28;20534;-66
2022/08/02 04:15:13;;;;;;;18.02;7.45;;;;;;;23.79;57.70;100051.41;5030204;28;20579;-66
2022/08/02 04:17:50;;;;;;;12.02;6.97;;;;;;;23.74;57.75;100039.50;5027696;28;20558;-66
2022/08/02 04:20:20;;;;;;;12.27;7.30;;;;;;;23.63;58.29;100039.31;5025584;28;20072;-66
2022/08/02 04:23:13;;;;;;;11.30;6.32;;;;;;;23.65;58.15;100048.28;5029746;28;20403;-66
2022/08/02 04:25:41;;;;;;;18.88;7.28;;;;;;;23.61;58.47;100044.56;5028299;28;20063;-66
2022/08/02 04:28:10;;;;;;;14.95;7.65;;;;;;;23.67;58.20;100040.19;5022537;28;20053;-66
2022/08/02 04:30:44;;;;;;;18.02;6.60;;;;;;;23.57;58.32;100046.53;5026127;28;20425;-66
2022/08/02 04:33:11;;;;;;;15.55;6.78;;;;;;;23.55;58.50;100034.69;5030581;28;20137;-66
2022/08/02 04:35:38;;;;;;;13.10;5.78;;;;;;;23.61;58.28;100041.72;5026965;28;20045;-66
2022/08/02 04:38:05;;;;;;;16.35;8.07;;;;;;;23.58;58.65;100039.63;5030540;28;20045;-65
2022/08/02 04:40:36;;;;;;;18.40;6.65;;;;;;;23.56;58.33;100022.91;5026843;28;20049;-65
2022/08/02 04:43:03;;;;;;;14.52;6.55;;;;;;;23.58;58.54;100031.06;5029900;28;20041;-66
2022/08/02 04:45:31;;;;;;;13.45;6.10;;;;;;;23.70;58.54;100033.75;5029376;28;20050;-66
2022/08/02 04:47:58;;;;;;;13.25;6.15;;;;;;;23.71;58.81;100046.78;5025264;28;20064;-65
2022/08/02 04:50:31;;;;;;;20.50;7.53;;;;;;;23.60;58.72;100035.19;5050969;28;20057;-65
2022/08/02 04:52:58;;;;;;;19.67;7.35;;;;;;;23.57;58.51;100040.84;5032284;28;20103;-65
2022/08/02 04:55:27;;;;;;;14.07;7.00;;;;;;;23.70;58.61;100044.34;5027830;28;21102;-65
2022/08/02 04:57:56;;;;;;;13.23;6.38;;;;;;;23.72;58.75;100041.91;5025493;28;20104;-65
2022/08/02 05:00:24;;;;;;;16.30;7.60;;;;;;;23.69;58.96;100043.50;5030864;28;20049;-66
2022/08/02 05:02:51;;;;;;;10.90;5.60;;;;;;;23.68;58.85;100046.75;5023814;28;20080;-66
2022/08/02 05:05:18;;;;;;;17.85;6.53;;;;;;;23.70;58.59;100053.72;5028673;28;20486;-66
2022/08/02 05:07:45;;;;;;;13.38;6.97;;;;;;;23.58;58.70;100025.38;5037075;28;20486;-66
2022/08/02 05:10:12;;;;;;;12.15;7.03;;;;;;;23.64;59.15;100046.66;5007271;28;20067;-66
2022/08/02 05:12:41;;;;;;;14.07;6.63;;;;;;;23.56;58.75;100039.19;5030203;28;20556;-66
2022/08/02 05:15:10;;;;;;;13.88;5.95;;;;;;;23.68;58.82;100056.09;5020105;28;20046;-65
2022/08/02 05:17:39;;;;;;;11.02;6.15;;;;;;;23.65;58.75;100051.13;5031273;28;20519;-66
2022/08/02 05:20:15;;;;;;;17.60;8.07;;;;;;;23.63;58.96;100050.72;5019909;28;20059;-65
2022/08/02 05:22:42;;;;;;;18.17;8.07;;;;;;;23.52;59.10;100061.94;5026905;28;20093;-66
2022/08/02 05:25:09;;;;;;;22.52;7.22;;;;;;;23.40;59.53;100042.16;5035469;28;20060;-66
2022/08/02 05:27:36;;;;;;;20.42;7.95;;;;;;;23.23;59.82;100054.88;5019637;28;20088;-66
2022/08/02 05:30:04;;;;;;;20.25;8.63;;;;;;;23.08;60.51;100044.44;5021102;28;20172;-66
2022/08/02 05:32:31;;;;;;;15.55;8.10;;;;;;;23.11;60.64;100061.59;5026167;28;20133;-67
2022/08/02 05:35:00;;;;;;;17.98;8.05;;;;;;;23.32;60.17;100064.00;5026624;28;20049;-68
2022/08/02 05:37:29;;;;;;;22.20;9.00;;;;;;;23.38;60.24;100076.75;5027920;28;20470;-67
2022/08/02 05:39:58;;;;;;;19.27;8.80;;;;;;;23.37;59.71;100072.22;5028052;28;20617;-67
2022/08/02 05:42:30;;;;;;;17.13;7.80;;;;;;;22.88;60.22;99998.88;5018723;28;20042;-66
2022/08/02 05:44:57;;;;;;;18.08;8.10;;;;;;;23.27;59.58;100072.84;5018969;28;20345;-65
2022/08/02 05:47:24;;;;;;;17.90;8.27;;;;;;;23.21;60.28;100068.66;5020174;28;20132;-66
2022/08/02 05:49:51;;;;;;;31.08;8.77;;;;;;;23.28;59.95;100085.91;5024287;28;20084;-66
2022/08/02 05:52:19;;;;;;;23.98;9.75;;;;;;;23.22;60.23;100084.56;5018039;28;20053;-66
2022/08/02 05:55:08;;;;;;;19.50;8.95;;;;;;;22.99;60.33;100080.84;5021215;28;20148;-65
2022/08/02 05:57:51;;;;;;;20.48;9.60;;;;;;;22.97;60.72;100081.22;5036466;28;20389;-64
2022/08/02 06:00:20;;;;;;;26.58;10.23;;;;;;;22.80;61.30;100082.47;5023980;28;20448;-66
2022/08/02 06:03:25;;;;;;;29.52;11.35;;;;;;;22.73;61.30;100087.19;5021990;28;20136;-66
2022/08/02 06:06:03;;;;;;;23.00;10.18;;;;;;;22.90;61.26;100092.44;5017144;28;20171;-66
2022/08/02 06:09:13;;;;;;;21.63;9.25;;;;;;;22.88;61.07;100095.66;5017259;28;20056;-67
2022/08/02 06:11:51;;;;;;;26.92;10.38;;;;;;;22.77;60.98;100096.63;5023044;28;20073;-65
2022/08/02 06:14:31;;;;;;;24.52;10.30;;;;;;;22.84;61.54;100100.47;5021914;28;20140;-66
2022/08/02 06:17:02;;;;;;;22.13;11.60;;;;;;;22.93;61.48;100108.81;5019936;28;20053;-66
2022/08/02 06:19:31;;;;;;;24.83;10.73;;;;;;;22.97;61.06;100100.34;5021213;28;20499;-66
2022/08/02 06:22:18;;;;;;;27.73;11.50;;;;;;;22.98;61.38;100093.47;5018942;28;20097;-66
2022/08/02 06:25:01;;;;;;;28.08;11.00;;;;;;;22.75;61.71;100048.63;5019059;28;20141;-66
2022/08/02 06:27:29;;;;;;;25.27;12.07;;;;;;;23.09;61.67;100095.31;5020966;28;20480;-65
2022/08/02 06:29:56;;;;;;;29.75;12.50;;;;;;;23.24;61.31;100102.09;5024448;28;20136;-65
2022/08/02 06:32:26;;;;;;;31.35;11.10;;;;;;;23.22;61.12;100087.44;5026622;28;20061;-66
2022/08/02 06:34:53;;;;;;;25.48;11.57;;;;;;;23.39;61.17;100109.72;5023033;28;20080;-66
2022/08/02 06:37:41;;;;;;;29.38;10.85;;;;;;;23.39;61.18;100109.72;5022960;28;20168;-66
2022/08/02 06:40:09;;;;;;;27.92;10.93;;;;;;;23.51;61.03;100116.44;5016862;28;20042;-65
2022/08/02 06:42:55;;;;;;;23.58;10.80;;;;;;;23.53;60.94;100091.25;5017309;28;20056;-66
2022/08/02 06:45:22;;;;;;;19.20;9.07;;;;;;;23.42;60.68;100057.69;5016820;28;20046;-66
2022/08/02 06:47:49;;;;;;;25.48;9.50;;;;;;;23.82;60.78;100110.50;5037388;28;20140;-65
2022/08/02 06:50:16;;;;;;;18.30;9.15;;;;;;;23.93;60.75;100115.56;5024249;28;20128;-65
2022/08/02 06:52:43;;;;;;;22.85;9.82;;;;;;;24.00;60.21;100107.97;5018132;28;20049;-66
2022/08/02 06:55:10;;;;;;;15.27;8.05;;;;;;;24.20;59.79;100102.97;5020812;28;20415;-65
2022/08/02 06:57:37;;;;;;;17.48;8.13;;;;;;;24.19;59.83;100089.09;5017222;28;20490;-66
2022/08/02 07:00:08;;;;;;;20.65;9.63;;;;;;;24.45;59.13;100108.28;5021329;28;20064;-65
2022/08/02 07:02:36;;;;;;;14.98;7.82;;;;;;;24.44;59.22;100096.03;5019067;28;20079;-65
2022/08/02 07:05:03;;;;;;;22.00;9.82;;;;;;;24.71;58.74;100119.66;5021069;28;20144;-66
2022/08/02 07:07:31;;;;;;;18.10;8.75;;;;;;;24.77;58.77;100120.16;5017519;28;20611;-67
2022/08/02 07:09:58;;;;;;;15.98;8.95;;;;;;;24.83;58.32;100110.84;5020364;28;20053;-67
2022/08/02 07:12:31;;;;;;;15.65;8.60;;;;;;;24.82;58.33;100092.06;5021620;28;20519;-68
2022/08/02 07:15:01;;;;;;;15.77;8.73;;;;;;;25.12;57.95;100118.97;5017716;28;20100;-67
2022/08/02 07:17:29;;;;;;;13.88;7.00;;;;;;;25.20;57.33;100110.09;5026055;28;20045;-68
2022/08/02 07:19:56;;;;;;;18.67;7.85;;;;;;;25.32;57.60;100105.31;5023699;28;20077;-68
2022/08/02 07:22:25;;;;;;;17.13;8.63;;;;;;;25.49;57.05;100116.13;5044472;28;20487;-66
2022/08/02 07:24:55;;;;;;;16.33;8.05;;;;;;;25.66;56.96;100115.47;5029479;28;20053;-68
2022/08/02 07:27:23;;;;;;;17.67;7.85;;;;;;;25.82;56.50;100117.28;5019970;28;20142;-67
2022/08/02 07:29:50;;;;;;;12.82;7.25;;;;;;;25.96;55.74;100114.56;5022054;28;20492;-67
2022/08/02 07:32:19;;;;;;;27.17;15.55;;;;;;;26.25;55.97;100121.31;5019180;28;20401;-67
2022/08/02 07:34:47;;;;;;;22.38;10.15;;;;;;;26.26;55.57;100113.53;5031103;28;20049;-67
2022/08/02 07:37:17;;;;;;;14.32;7.88;;;;;;;26.57;55.34;100124.44;5021670;28;20354;-68
2022/08/02 07:40:05;;;;;;;15.07;7.90;;;;;;;26.97;54.52;100108.25;5019661;28;20050;-68
2022/08/02 07:42:40;;;;;;;16.30;9.05;;;;;;;27.06;54.34;100117.28;5017665;28;20082;-68
2022/08/02 07:45:08;;;;;;;12.73;8.00;;;;;;;26.94;53.80;100097.63;5015699;28;20128;-68
2022/08/02 07:47:39;;;;;;;15.48;7.38;;;;;;;27.23;54.00;100114.94;5031079;28;20075;-66
2022/08/02 07:50:08;;;;;;;17.90;8.52;;;;;;;27.40;53.57;100128.50;5015612;28;20543;-65
2022/08/02 07:52:35;;;;;;;20.60;8.75;;;;;;;27.63;53.34;100111.75;5022903;28;20135;-65
2022/08/02 07:55:03;;;;;;;20.20;8.77;;;;;;;27.93;52.64;100101.13;5018444;28;20225;-66
2022/08/02 07:57:30;;;;;;;16.38;8.23;;;;;;;28.14;52.20;100114.66;5018866;28;20507;-65
2022/08/02 07:59:57;;;;;;;16.60;8.45;;;;;;;28.18;51.94;100118.34;5019184;28;20155;-65
2022/08/02 08:02:24;;;;;;;14.38;8.02;;;;;;;28.13;51.47;100119.56;5019698;28;20515;-66
2022/08/02 08:04:51;;;;;;;13.88;7.78;;;;;;;28.04;51.45;100097.03;5024055;28;21944;-67
2022/08/02 08:07:19;;;;;;;19.77;8.68;;;;;;;28.04;51.43;100124.94;5017027;28;20132;-66
2022/08/02 08:09:47;;;;;;;15.45;8.52;;;;;;;27.98;51.11;100126.56;5022493;28;20168;-65
2022/08/02 08:12:15;;;;;;;14.07;8.55;;;;;;;28.00;51.53;100121.22;5038956;28;20132;-66
2022/08/02 08:14:43;;;;;;;16.02;7.57;;;;;;;28.07;51.29;100124.94;5017493;28;20050;-66
2022/08/02 08:17:09;;;;;;;18.85;7.95;;;;;;;28.33;51.09;100114.22;5023270;28;20474;-66
2022/08/02 08:19:36;;;;;;;12.73;7.30;;;;;;;28.32;50.82;100095.38;5019579;28;20050;-65
2022/08/02 08:22:18;;;;;;;14.27;7.57;;;;;;;28.23;50.48;100109.31;5022446;28;20136;-65
2022/08/02 08:24:45;;;;;;;17.92;8.18;;;;;;;28.36;50.25;100127.75;5023003;28;20046;-66
2022/08/02 08:27:14;;;;;;;14.77;8.18;;;;;;;28.48;49.79;100127.38;5017225;28;20061;-65
2022/08/02 08:29:41;;;;;;;13.32;8.55;;;;;;;28.51;50.00;100132.28;5022046;28;20056;-66
2022/08/02 08:32:09;;;;;;;16.40;9.43;;;;;;;28.70;49.67;100131.00;5023010;28;20155;-66
2022/08/02 08:34:42;;;;;;;15.35;7.70;;;;;;;28.62;49.51;100115.03;5029035;28;20041;-65
2022/08/02 08:37:09;;;;;;;22.70;8.40;;;;;;;28.89;49.49;100135.47;5029654;28;20489;-66
2022/08/02 08:39:48;;;;;;;17.17;8.82;;;;;;;28.95;49.28;100130.09;5024254;28;20049;-65
2022/08/02 08:42:28;;;;;;;18.80;8.23;;;;;;;29.03;48.95;100129.69;5024878;28;20139;-66
2022/08/02 08:44:55;;;;;;;16.75;8.73;;;;;;;29.02;48.63;100133.78;5021672;28;20337;-65
2022/08/02 08:47:35;;;;;;;16.20;7.43;;;;;;;29.18;48.94;100118.94;5024199;28;20145;-65
2022/08/02 08:50:03;;;;;;;;;;;;;;;29.35;49.33;100125.84;5039405;28;20133;-66
2022/08/02 08:52:36;;;;;;;19.17;8.13;;;;;;;29.75;48.14;100106.31;5021732;28;20351;-66
2022/08/02 08:55:04;;;;;;;16.48;7.80;;;;;;;30.10;47.52;100107.25;5028086;28;20081;-66
2022/08/02 08:57:34;;;;;;;13.30;7.95;;;;;;;30.40;46.58;100107.38;5027289;28;20104;-65
2022/08/02 09:00:00;;;;;;;16.35;7.63;;;;;;;30.43;46.62;100111.50;5027394;28;20136;-66
2022/08/02 09:02:27;;;;;;;14.93;8.07;;;;;;;30.98;46.17;100124.88;5020167;28;20132;-66
2022/08/02 09:04:55;;;;;;;19.80;6.57;;;;;;;31.37;45.35;100101.31;5026027;28;20411;-65
2022/08/02 09:07:22;;;;;;;11.95;6.55;;;;;;;31.89;44.66;100125.28;5025222;28;20140;-65
2022/08/02 09:09:49;;;;;;;12.88;6.60;;;;;;;32.20;43.80;100121.03;5027514;28;20053;-65
2022/08/02 09:12:17;;;;;;;14.10;6.13;;;;;;;32.49;43.27;100120.56;5021469;28;20081;-65
2022/08/02 09:14:45;;;;;;;9.80;6.07;;;;;;;32.56;43.18;100120.44;5023297;28;20132;-65
2022/08/02 09:17:16;;;;;;;12.85;6.15;;;;;;;32.54;42.98;100122.94;5019673;28;20056;-66
2022/08/02 09:19:43;;;;;;;12.65;6.43;;;;;;;32.23;43.29;100108.59;5021684;28;20092;-66
2022/08/02 09:22:13;;;;;;;33.42;6.53;;;;;;;32.60;42.81;100124.06;5022049;28;20075;-65
2022/08/02 09:24:50;;;;;;;9.25;5.60;;;;;;;32.80;42.02;100133.59;5022467;28;20048;-65
2022/08/02 09:27:20;;;;;;;9.75;6.13;;;;;;;32.74;41.89;100129.56;5033446;28;20081;-66
2022/08/02 09:29:49;;;;;;;14.95;6.53;;;;;;;32.59;41.55;100122.44;5020948;28;20136;-66
2022/08/02 09:32:46;;;;;;;;;;;;;;;32.65;42.78;100143.81;5024646;28;20058;-66
2022/08/02 09:35:30;;;;;;;11.27;6.28;;;;;;;32.36;42.61;100136.88;5024487;28;19920;-66
2022/08/02 09:38:17;;;;;;;14.73;7.40;;;;;;;32.18;42.68;100164.00;5024369;28;20145;-65
2022/08/02 09:40:44;;;;;;;12.77;6.88;;;;;;;32.06;42.01;100135.72;5022919;28;20145;-66
2022/08/02 09:43:11;;;;;;;16.52;7.47;;;;;;;32.29;41.77;100161.75;5023668;28;20136;-65
2022/08/02 09:45:38;;;;;;;13.32;7.10;;;;;;;31.98;41.90;100151.56;5024756;28;20144;-67
2022/08/02 09:48:08;;;;;;;14.82;7.15;;;;;;;31.60;42.01;100158.28;5024881;28;20144;-66
2022/08/02 09:50:37;;;;;;;17.10;7.70;;;;;;;31.58;42.23;100157.06;5022538;28;20148;-66
2022/08/02 09:53:04;;;;;;;10.48;6.10;;;;;;;31.85;42.38;100159.97;5027355;28;20167;-65
2022/08/02 09:55:31;;;;;;;9.77;6.28;;;;;;;32.22;41.37;100166.84;5026899;28;20160;-65
2022/08/02 09:58:18;;;;;;;10.93;6.63;;;;;;;31.94;42.41;100140.06;5016249;28;20049;-65
2022/08/02 10:00:55;;;;;;;10.20;7.65;;;;;;;32.29;41.40;100160.94;5026878;28;20088;-65
2022/08/02 10:03:22;;;;;;;15.07;7.38;;;;;;;32.06;42.00;100171.22;5020197;28;20132;-66
2022/08/02 10:06:01;;;;;;;16.00;8.07;;;;;;;32.24;41.90;100170.94;5027326;28;20400;-66
2022/08/02 10:08:30;;;;;;;11.43;7.43;;;;;;;32.13;41.38;100158.72;5020159;28;20962;-65
2022/08/02 10:10:59;;;;;;;15.20;8.93;;;;;;;32.07;41.48;100178.63;5026563;28;20302;-66
2022/08/02 10:13:32;;;;;;;17.00;9.13;;;;;;;32.19;41.18;100180.09;5023007;28;20060;-65
2022/08/02 10:16:01;;;;;;;19.02;9.07;;;;;;;32.26;41.43;100182.03;5021118;28;20136;-66
2022/08/02 10:18:28;;;;;;;18.13;10.15;;;;;;;32.23;40.75;100185.81;5022251;28;20080;-65
2022/08/02 10:21:11;;;;;;;19.52;10.48;;;;;;;32.19;40.87;100185.06;5019583;28;20431;-65
2022/08/02 10:23:40;;;;;;;18.15;9.82;;;;;;;32.29;40.71;100192.72;5024224;28;20476;-65
2022/08/02 10:26:08;;;;;;;16.88;10.43;;;;;;;32.29;40.61;100190.66;5041098;28;20144;-65
2022/08/02 10:28:36;;;;;;;22.50;10.68;;;;;;;31.79;41.32;100193.47;5023681;28;20482;-66
2022/08/02 10:31:06;;;;;;;20.70;10.27;;;;;;;30.98;42.21;100178.88;5020022;28;20061;-66
2022/08/02 10:33:37;;;;;;;25.63;10.70;;;;;;;30.99;42.33;100198.59;5022364;28;20568;-65
2022/08/02 10:36:07;;;;;;;18.73;10.60;;;;;;;30.56;43.03;100184.59;5020719;28;20093;-65
2022/08/02 10:38:34;;;;;;;18.38;8.98;;;;;;;30.41;43.87;100206.97;5023224;28;20140;-64
2022/08/02 10:41:02;;;;;;;25.10;10.05;;;;;;;29.92;44.60;100188.00;5021476;28;20153;-66
2022/08/02 10:43:35;;;;;;;20.67;10.52;;;;;;;29.81;44.77;100205.31;5018813;28;20060;-65
2022/08/02 10:46:21;;;;;;;24.55;10.38;;;;;;;29.61;45.16;100207.13;5022570;28;20081;-66
2022/08/02 10:49:11;;;;;;;17.38;10.02;;;;;;;29.64;45.21;100214.88;5025004;28;20153;-65
2022/08/02 10:52:01;;;;;;;19.20;10.50;;;;;;;29.96;44.75;100209.75;5039119;28;20049;-66
2022/08/02 10:54:32;;;;;;;17.77;8.93;;;;;;;30.01;44.39;100210.56;5021598;28;20069;-66
2022/08/02 10:57:00;;;;;;;22.08;10.35;;;;;;;29.58;44.86;100205.84;5023206;28;20152;-66
2022/08/02 10:59:27;;;;;;;18.20;9.43;;;;;;;29.36;45.32;100215.81;5024855;28;20097;-66
2022/08/02 11:02:01;;;;;;;16.77;9.38;;;;;;;29.17;45.61;100205.63;5019073;28;20149;-66
2022/08/02 11:04:50;;;;;;;20.17;10.32;;;;;;;29.13;45.87;100222.06;5023525;28;20084;-66
2022/08/02 11:07:21;;;;;;;19.30;8.40;;;;;;;29.53;45.90;100204.22;5024765;28;20136;-66
2022/08/02 11:09:49;;;;;;;22.35;9.38;;;;;;;29.67;45.09;100196.78;5022267;28;20049;-66
2022/08/02 11:12:17;;;;;;;18.93;9.93;;;;;;;29.55;45.30;100214.50;5023382;28;20089;-66
2022/08/02 11:14:58;;;;;;;22.38;10.25;;;;;;;29.26;45.99;100206.81;5018157;28;20049;-65
2022/08/02 11:17:28;;;;;;;20.00;9.10;;;;;;;29.14;46.31;100169.91;5015268;28;20718;-66
2022/08/02 11:20:09;;;;;;;16.00;9.43;;;;;;;29.77;45.15;100195.09;5028935;28;20054;-66
2022/08/02 11:22:37;;;;;;;17.92;8.15;;;;;;;30.12;44.64;100199.75;5022656;28;20078;-65
2022/08/02 11:25:22;;;;;;;17.05;8.23;;;;;;;29.88;45.19;100208.19;5017657;28;20654;-65
2022/08/02 11:27:57;;;;;;;16.58;8.00;;;;;;;29.50;45.56;100207.13;5023585;28;20137;-65
2022/08/02 11:30:25;;;;;;;13.75;7.55;;;;;;;29.39;46.05;100201.41;5041046;28;20140;-66
2022/08/02 11:32:57;;;;;;;15.85;8.48;;;;;;;29.80;45.22;100202.88;5026932;28;20156;-65
2022/08/02 11:35:36;;;;;;;12.70;6.68;;;;;;;30.00;44.88;100175.19;5027318;28;20073;-65
2022/08/02 11:38:18;;;;;;;16.60;7.28;;;;;;;30.44;44.40;100193.78;5021952;28;20157;-65